sensor_id;sensor_type;location;lat;lon;timestamp;P1;durP1;ratioP1;P2;durP2;ratioP2
37971;SDS011;23794;48.234;8.344;2023-01-16T00:01:26;6.07;;;1.05;;
37971;SDS011;23794;48.234;8.344;2023-01-16T00:03:54;3.75;;;0.95;;
37971;SDS011;23794;48.234;8.344;2023-01-16T00:06:21;2.88;;;0.85;;
37971;SDS011;23794;48.234;8.344;2023-01-16T00:08:47;3.90;;;0.70;;
37971;SDS011;23794;48.234;8.344;2023-01-16T00:11:15;3.13;;;0.80;;
37971;SDS011;23794;48.234;8.344;2023-01-16T00:13:42;4.00;;;1.00;;
37971;SDS011;23794;48.234;8.344;2023-01-16T00:16:08;3.35;;;1.08;;
37971;SDS011;23794;48.234;8.344;2023-01-16T00:18:35;4.97;;;1.15;;
37971;SDS011;23794;48.234;8.344;2023-01-16T00:21:02;1.95;;;0.50;;
37971;SDS011;23794;48.234;8.344;2023-01-16T00:23:28;3.53;;;1.33;;
37971;SDS011;23794;48.234;8.344;2023-01-16T00:25:55;5.00;;;0.80;;
37971;SDS011;23794;48.234;8.344;2023-01-16T00:28:22;3.95;;;0.60;;
37971;SDS011;23794;48.234;8.344;2023-01-16T00:30:48;6.35;;;0.75;;
37971;SDS011;23794;48.234;8.344;2023-01-16T00:33:15;3.20;;;0.70;;
37971;SDS011;23794;48.234;8.344;2023-01-16T00:35:42;5.20;;;0.85;;
37971;SDS011;23794;48.234;8.344;2023-01-16T00:38:08;3.20;;;0.80;;
37971;SDS011;23794;48.234;8.344;2023-01-16T00:40:35;5.38;;;0.77;;
37971;SDS011;23794;48.234;8.344;2023-01-16T00:43:02;3.78;;;0.90;;
37971;SDS011;23794;48.234;8.344;2023-01-16T00:45:28;6.75;;;1.23;;
37971;SDS011;23794;48.234;8.344;2023-01-16T00:47:55;3.08;;;0.60;;
37971;SDS011;23794;48.234;8.344;2023-01-16T00:50:21;2.90;;;0.80;;
37971;SDS011;23794;48.234;8.344;2023-01-16T00:52:48;3.65;;;1.00;;
37971;SDS011;23794;48.234;8.344;2023-01-16T00:55:14;3.97;;;0.88;;
37971;SDS011;23794;48.234;8.344;2023-01-16T00:57:41;4.07;;;0.68;;
37971;SDS011;23794;48.234;8.344;2023-01-16T01:00:07;3.45;;;0.73;;
37971;SDS011;23794;48.234;8.344;2023-01-16T01:02:34;2.15;;;0.70;;
37971;SDS011;23794;48.234;8.344;2023-01-16T01:05:01;2.03;;;0.68;;
37971;SDS011;23794;48.234;8.344;2023-01-16T01:07:27;4.03;;;0.80;;
37971;SDS011;23794;48.234;8.344;2023-01-16T01:09:54;1.88;;;0.45;;
37971;SDS011;23794;48.234;8.344;2023-01-16T01:12:21;2.47;;;0.60;;
37971;SDS011;23794;48.234;8.344;2023-01-16T01:14:47;6.55;;;0.90;;
37971;SDS011;23794;48.234;8.344;2023-01-16T01:17:14;6.32;;;0.90;;
37971;SDS011;23794;48.234;8.344;2023-01-16T01:19:40;4.55;;;0.80;;
37971;SDS011;23794;48.234;8.344;2023-01-16T01:22:07;5.00;;;1.02;;
37971;SDS011;23794;48.234;8.344;2023-01-16T01:24:33;3.72;;;0.82;;
37971;SDS011;23794;48.234;8.344;2023-01-16T01:27:00;2.85;;;0.65;;
37971;SDS011;23794;48.234;8.344;2023-01-16T01:29:26;3.70;;;1.10;;
37971;SDS011;23794;48.234;8.344;2023-01-16T01:31:53;5.20;;;0.70;;
37971;SDS011;23794;48.234;8.344;2023-01-16T01:34:20;2.08;;;0.52;;
37971;SDS011;23794;48.234;8.344;2023-01-16T01:36:46;5.97;;;0.60;;
37971;SDS011;23794;48.234;8.344;2023-01-16T01:39:13;1.63;;;0.47;;
37971;SDS011;23794;48.234;8.344;2023-01-16T01:41:39;1.40;;;0.50;;
37971;SDS011;23794;48.234;8.344;2023-01-16T01:44:39;4.95;;;0.70;;
37971;SDS011;23794;48.234;8.344;2023-01-16T01:47:07;3.23;;;0.70;;
37971;SDS011;23794;48.234;8.344;2023-01-16T01:49:34;5.13;;;0.88;;
37971;SDS011;23794;48.234;8.344;2023-01-16T01:52:01;1.33;;;0.55;;
37971;SDS011;23794;48.234;8.344;2023-01-16T01:54:41;3.28;;;0.88;;
37971;SDS011;23794;48.234;8.344;2023-01-16T01:57:13;2.72;;;0.52;;
37971;SDS011;23794;48.234;8.344;2023-01-16T01:59:45;4.28;;;0.60;;
37971;SDS011;23794;48.234;8.344;2023-01-16T02:02:19;4.05;;;0.60;;
37971;SDS011;23794;48.234;8.344;2023-01-16T02:04:48;3.20;;;1.42;;
37971;SDS011;23794;48.234;8.344;2023-01-16T02:07:18;5.95;;;0.60;;
37971;SDS011;23794;48.234;8.344;2023-01-16T02:09:46;3.20;;;0.63;;
37971;SDS011;23794;48.234;8.344;2023-01-16T02:12:13;4.68;;;0.68;;
37971;SDS011;23794;48.234;8.344;2023-01-16T02:14:43;2.53;;;0.47;;
37971;SDS011;23794;48.234;8.344;2023-01-16T02:17:14;6.88;;;1.15;;
37971;SDS011;23794;48.234;8.344;2023-01-16T02:20:08;3.42;;;0.70;;
37971;SDS011;23794;48.234;8.344;2023-01-16T02:28:13;2.83;;;0.60;;
37971;SDS011;23794;48.234;8.344;2023-01-16T02:31:03;4.63;;;0.70;;
37971;SDS011;23794;48.234;8.344;2023-01-16T02:36:20;2.95;;;0.73;;
37971;SDS011;23794;48.234;8.344;2023-01-16T02:47:52;4.15;;;1.15;;
37971;SDS011;23794;48.234;8.344;2023-01-16T02:53:17;4.13;;;0.95;;
37971;SDS011;23794;48.234;8.344;2023-01-16T02:56:08;2.85;;;0.63;;
37971;SDS011;23794;48.234;8.344;2023-01-16T03:01:08;2.70;;;0.52;;
37971;SDS011;23794;48.234;8.344;2023-01-16T03:08:59;3.25;;;0.50;;
37971;SDS011;23794;48.234;8.344;2023-01-16T03:11:27;3.60;;;0.68;;
37971;SDS011;23794;48.234;8.344;2023-01-16T03:14:17;4.70;;;0.73;;
37971;SDS011;23794;48.234;8.344;2023-01-16T03:20:00;4.70;;;0.70;;
37971;SDS011;23794;48.234;8.344;2023-01-16T03:22:45;1.40;;;0.70;;
37971;SDS011;23794;48.234;8.344;2023-01-16T03:25:24;1.38;;;0.70;;
37971;SDS011;23794;48.234;8.344;2023-01-16T03:28:10;1.45;;;0.50;;
37971;SDS011;23794;48.234;8.344;2023-01-16T03:33:30;4.75;;;1.40;;
37971;SDS011;23794;48.234;8.344;2023-01-16T03:36:21;1.65;;;0.70;;
37971;SDS011;23794;48.234;8.344;2023-01-16T03:38:55;3.60;;;0.77;;
37971;SDS011;23794;48.234;8.344;2023-01-16T03:41:24;2.08;;;0.73;;
37971;SDS011;23794;48.234;8.344;2023-01-16T03:43:57;2.78;;;0.80;;
37971;SDS011;23794;48.234;8.344;2023-01-16T03:46:29;0.88;;;0.43;;
37971;SDS011;23794;48.234;8.344;2023-01-16T03:49:08;2.63;;;0.60;;
37971;SDS011;23794;48.234;8.344;2023-01-16T03:51:45;3.28;;;0.60;;
37971;SDS011;23794;48.234;8.344;2023-01-16T03:54:29;3.60;;;0.65;;
37971;SDS011;23794;48.234;8.344;2023-01-16T03:57:24;1.05;;;0.60;;
37971;SDS011;23794;48.234;8.344;2023-01-16T03:59:54;3.42;;;0.70;;
37971;SDS011;23794;48.234;8.344;2023-01-16T04:02:25;4.85;;;1.33;;
37971;SDS011;23794;48.234;8.344;2023-01-16T04:05:13;2.92;;;0.70;;
37971;SDS011;23794;48.234;8.344;2023-01-16T04:07:44;2.33;;;0.70;;
37971;SDS011;23794;48.234;8.344;2023-01-16T04:10:15;3.15;;;0.80;;
37971;SDS011;23794;48.234;8.344;2023-01-16T04:12:47;2.22;;;0.60;;
37971;SDS011;23794;48.234;8.344;2023-01-16T04:15:37;4.85;;;1.20;;
37971;SDS011;23794;48.234;8.344;2023-01-16T04:18:08;1.40;;;0.63;;
37971;SDS011;23794;48.234;8.344;2023-01-16T04:20:35;1.10;;;0.45;;
37971;SDS011;23794;48.234;8.344;2023-01-16T04:23:05;2.30;;;0.95;;
37971;SDS011;23794;48.234;8.344;2023-01-16T04:25:32;2.55;;;0.68;;
37971;SDS011;23794;48.234;8.344;2023-01-16T04:27:58;1.90;;;0.68;;
37971;SDS011;23794;48.234;8.344;2023-01-16T04:30:25;2.88;;;0.40;;
37971;SDS011;23794;48.234;8.344;2023-01-16T04:32:51;2.08;;;0.43;;
37971;SDS011;23794;48.234;8.344;2023-01-16T04:35:18;1.65;;;0.65;;
37971;SDS011;23794;48.234;8.344;2023-01-16T04:37:44;1.83;;;0.55;;
37971;SDS011;23794;48.234;8.344;2023-01-16T04:40:11;1.52;;;0.60;;
37971;SDS011;23794;48.234;8.344;2023-01-16T04:42:38;1.13;;;0.60;;
37971;SDS011;23794;48.234;8.344;2023-01-16T04:45:04;1.42;;;0.47;;
37971;SDS011;23794;48.234;8.344;2023-01-16T04:47:31;2.33;;;0.73;;
37971;SDS011;23794;48.234;8.344;2023-01-16T04:49:58;5.35;;;1.63;;
37971;SDS011;23794;48.234;8.344;2023-01-16T04:52:24;1.23;;;0.70;;
37971;SDS011;23794;48.234;8.344;2023-01-16T04:54:51;3.78;;;0.50;;
37971;SDS011;23794;48.234;8.344;2023-01-16T04:57:17;1.73;;;0.70;;
37971;SDS011;23794;48.234;8.344;2023-01-16T04:59:44;1.60;;;0.50;;
37971;SDS011;23794;48.234;8.344;2023-01-16T05:02:10;4.43;;;0.60;;
37971;SDS011;23794;48.234;8.344;2023-01-16T05:04:39;3.33;;;0.57;;
37971;SDS011;23794;48.234;8.344;2023-01-16T05:07:05;2.10;;;0.47;;
37971;SDS011;23794;48.234;8.344;2023-01-16T05:09:32;2.05;;;0.73;;
37971;SDS011;23794;48.234;8.344;2023-01-16T05:11:59;2.65;;;1.20;;
37971;SDS011;23794;48.234;8.344;2023-01-16T05:14:25;1.85;;;0.93;;
37971;SDS011;23794;48.234;8.344;2023-01-16T05:16:52;3.38;;;0.70;;
37971;SDS011;23794;48.234;8.344;2023-01-16T05:19:18;2.90;;;0.90;;
37971;SDS011;23794;48.234;8.344;2023-01-16T05:21:45;3.92;;;0.80;;
37971;SDS011;23794;48.234;8.344;2023-01-16T05:24:11;3.70;;;1.20;;
37971;SDS011;23794;48.234;8.344;2023-01-16T05:26:38;1.35;;;0.75;;
37971;SDS011;23794;48.234;8.344;2023-01-16T05:29:04;3.88;;;1.38;;
37971;SDS011;23794;48.234;8.344;2023-01-16T05:31:31;1.65;;;0.65;;
37971;SDS011;23794;48.234;8.344;2023-01-16T05:33:58;3.42;;;0.80;;
37971;SDS011;23794;48.234;8.344;2023-01-16T05:36:24;4.60;;;0.80;;
37971;SDS011;23794;48.234;8.344;2023-01-16T05:38:51;3.40;;;0.80;;
37971;SDS011;23794;48.234;8.344;2023-01-16T05:41:17;2.20;;;1.15;;
37971;SDS011;23794;48.234;8.344;2023-01-16T05:43:44;7.80;;;1.10;;
37971;SDS011;23794;48.234;8.344;2023-01-16T05:46:10;2.13;;;0.70;;
37971;SDS011;23794;48.234;8.344;2023-01-16T05:48:37;1.70;;;0.63;;
37971;SDS011;23794;48.234;8.344;2023-01-16T05:51:05;3.05;;;1.45;;
37971;SDS011;23794;48.234;8.344;2023-01-16T05:53:32;2.92;;;1.17;;
37971;SDS011;23794;48.234;8.344;2023-01-16T05:55:58;4.80;;;1.70;;
37971;SDS011;23794;48.234;8.344;2023-01-16T05:58:25;4.28;;;1.20;;
37971;SDS011;23794;48.234;8.344;2023-01-16T06:00:52;2.30;;;1.05;;
37971;SDS011;23794;48.234;8.344;2023-01-16T06:03:18;3.03;;;1.02;;
37971;SDS011;23794;48.234;8.344;2023-01-16T06:05:47;1.95;;;0.90;;
37971;SDS011;23794;48.234;8.344;2023-01-16T06:08:14;2.80;;;1.23;;
37971;SDS011;23794;48.234;8.344;2023-01-16T06:10:40;4.15;;;1.50;;
37971;SDS011;23794;48.234;8.344;2023-01-16T06:13:07;2.95;;;1.33;;
37971;SDS011;23794;48.234;8.344;2023-01-16T06:15:33;3.92;;;1.13;;
37971;SDS011;23794;48.234;8.344;2023-01-16T06:18:00;2.75;;;1.00;;
37971;SDS011;23794;48.234;8.344;2023-01-16T06:20:26;3.20;;;1.35;;
37971;SDS011;23794;48.234;8.344;2023-01-16T06:22:53;3.60;;;1.20;;
37971;SDS011;23794;48.234;8.344;2023-01-16T06:25:20;2.25;;;1.23;;
37971;SDS011;23794;48.234;8.344;2023-01-16T06:27:48;4.05;;;1.20;;
37971;SDS011;23794;48.234;8.344;2023-01-16T06:30:15;3.72;;;1.75;;
37971;SDS011;23794;48.234;8.344;2023-01-16T06:32:42;4.47;;;1.50;;
37971;SDS011;23794;48.234;8.344;2023-01-16T06:35:09;3.63;;;1.30;;
37971;SDS011;23794;48.234;8.344;2023-01-16T06:37:35;3.03;;;1.33;;
37971;SDS011;23794;48.234;8.344;2023-01-16T06:40:02;6.68;;;1.50;;
37971;SDS011;23794;48.234;8.344;2023-01-16T06:42:28;4.25;;;1.58;;
37971;SDS011;23794;48.234;8.344;2023-01-16T06:44:55;2.03;;;1.40;;
37971;SDS011;23794;48.234;8.344;2023-01-16T06:47:21;3.55;;;1.30;;
37971;SDS011;23794;48.234;8.344;2023-01-16T06:49:48;2.58;;;1.60;;
37971;SDS011;23794;48.234;8.344;2023-01-16T06:52:15;2.83;;;1.60;;
37971;SDS011;23794;48.234;8.344;2023-01-16T06:54:41;5.47;;;1.88;;
37971;SDS011;23794;48.234;8.344;2023-01-16T06:57:08;2.85;;;1.75;;
37971;SDS011;23794;48.234;8.344;2023-01-16T06:59:34;3.17;;;1.85;;
37971;SDS011;23794;48.234;8.344;2023-01-16T07:02:01;3.20;;;1.65;;
37971;SDS011;23794;48.234;8.344;2023-01-16T07:04:27;3.50;;;1.80;;
37971;SDS011;23794;48.234;8.344;2023-01-16T07:06:54;2.67;;;1.52;;
37971;SDS011;23794;48.234;8.344;2023-01-16T07:09:20;2.60;;;1.92;;
37971;SDS011;23794;48.234;8.344;2023-01-16T07:11:54;2.35;;;1.58;;
37971;SDS011;23794;48.234;8.344;2023-01-16T07:14:21;4.72;;;1.63;;
37971;SDS011;23794;48.234;8.344;2023-01-16T07:17:06;3.78;;;1.70;;
37971;SDS011;23794;48.234;8.344;2023-01-16T07:19:54;2.67;;;1.48;;
37971;SDS011;23794;48.234;8.344;2023-01-16T07:22:39;4.38;;;1.90;;
37971;SDS011;23794;48.234;8.344;2023-01-16T07:25:11;5.20;;;1.50;;
37971;SDS011;23794;48.234;8.344;2023-01-16T07:27:41;3.03;;;1.58;;
37971;SDS011;23794;48.234;8.344;2023-01-16T07:30:09;4.57;;;1.60;;
37971;SDS011;23794;48.234;8.344;2023-01-16T07:32:37;2.63;;;1.60;;
37971;SDS011;23794;48.234;8.344;2023-01-16T07:35:04;2.05;;;1.30;;
37971;SDS011;23794;48.234;8.344;2023-01-16T07:37:32;2.35;;;1.23;;
37971;SDS011;23794;48.234;8.344;2023-01-16T07:39:59;3.05;;;1.55;;
37971;SDS011;23794;48.234;8.344;2023-01-16T07:42:26;1.90;;;1.33;;
37971;SDS011;23794;48.234;8.344;2023-01-16T07:44:52;3.15;;;1.40;;
37971;SDS011;23794;48.234;8.344;2023-01-16T07:47:19;3.95;;;1.73;;
37971;SDS011;23794;48.234;8.344;2023-01-16T07:49:46;4.43;;;1.70;;
37971;SDS011;23794;48.234;8.344;2023-01-16T07:52:13;2.42;;;1.33;;
37971;SDS011;23794;48.234;8.344;2023-01-16T07:54:40;3.10;;;1.85;;
37971;SDS011;23794;48.234;8.344;2023-01-16T07:57:07;3.05;;;1.70;;
37971;SDS011;23794;48.234;8.344;2023-01-16T07:59:33;2.80;;;1.42;;
37971;SDS011;23794;48.234;8.344;2023-01-16T08:02:00;3.72;;;2.08;;
37971;SDS011;23794;48.234;8.344;2023-01-16T08:04:28;2.75;;;1.60;;
37971;SDS011;23794;48.234;8.344;2023-01-16T08:06:57;1.38;;;1.00;;
37971;SDS011;23794;48.234;8.344;2023-01-16T08:09:24;1.90;;;1.25;;
37971;SDS011;23794;48.234;8.344;2023-01-16T08:11:50;7.03;;;1.50;;
37971;SDS011;23794;48.234;8.344;2023-01-16T08:14:17;2.63;;;1.30;;
37971;SDS011;23794;48.234;8.344;2023-01-16T08:16:43;2.92;;;1.30;;
37971;SDS011;23794;48.234;8.344;2023-01-16T08:19:10;2.72;;;1.10;;
37971;SDS011;23794;48.234;8.344;2023-01-16T08:21:37;3.92;;;1.40;;
37971;SDS011;23794;48.234;8.344;2023-01-16T08:24:03;4.05;;;1.90;;
37971;SDS011;23794;48.234;8.344;2023-01-16T08:26:30;3.47;;;1.38;;
37971;SDS011;23794;48.234;8.344;2023-01-16T08:28:57;2.35;;;1.27;;
37971;SDS011;23794;48.234;8.344;2023-01-16T08:31:26;2.28;;;1.10;;
37971;SDS011;23794;48.234;8.344;2023-01-16T08:33:52;2.80;;;1.00;;
37971;SDS011;23794;48.234;8.344;2023-01-16T08:36:19;2.85;;;1.70;;
37971;SDS011;23794;48.234;8.344;2023-01-16T08:38:47;2.58;;;0.88;;
37971;SDS011;23794;48.234;8.344;2023-01-16T08:41:14;1.08;;;0.80;;
37971;SDS011;23794;48.234;8.344;2023-01-16T08:43:59;2.17;;;1.08;;
37971;SDS011;23794;48.234;8.344;2023-01-16T08:46:47;2.33;;;1.00;;
37971;SDS011;23794;48.234;8.344;2023-01-16T08:49:38;2.38;;;1.20;;
37971;SDS011;23794;48.234;8.344;2023-01-16T08:52:23;1.17;;;0.80;;
37971;SDS011;23794;48.234;8.344;2023-01-16T08:54:53;2.72;;;1.30;;
37971;SDS011;23794;48.234;8.344;2023-01-16T08:57:19;3.47;;;2.28;;
37971;SDS011;23794;48.234;8.344;2023-01-16T08:59:46;1.40;;;1.00;;
37971;SDS011;23794;48.234;8.344;2023-01-16T09:02:12;2.78;;;1.30;;
37971;SDS011;23794;48.234;8.344;2023-01-16T09:04:41;4.18;;;2.22;;
37971;SDS011;23794;48.234;8.344;2023-01-16T09:07:07;4.50;;;2.05;;
37971;SDS011;23794;48.234;8.344;2023-01-16T09:09:34;3.38;;;1.60;;
37971;SDS011;23794;48.234;8.344;2023-01-16T09:12:00;1.67;;;1.08;;
37971;SDS011;23794;48.234;8.344;2023-01-16T09:14:46;1.40;;;0.73;;
37971;SDS011;23794;48.234;8.344;2023-01-16T09:17:13;1.85;;;1.08;;
37971;SDS011;23794;48.234;8.344;2023-01-16T09:19:39;2.05;;;1.10;;
37971;SDS011;23794;48.234;8.344;2023-01-16T09:22:06;1.98;;;1.45;;
37971;SDS011;23794;48.234;8.344;2023-01-16T09:24:33;3.88;;;1.85;;
37971;SDS011;23794;48.234;8.344;2023-01-16T09:27:00;1.60;;;0.63;;
37971;SDS011;23794;48.234;8.344;2023-01-16T09:29:28;1.42;;;0.80;;
37971;SDS011;23794;48.234;8.344;2023-01-16T09:31:55;1.20;;;0.98;;
37971;SDS011;23794;48.234;8.344;2023-01-16T09:34:22;1.58;;;0.73;;
37971;SDS011;23794;48.234;8.344;2023-01-16T09:36:48;1.40;;;0.52;;
37971;SDS011;23794;48.234;8.344;2023-01-16T09:39:16;1.52;;;0.73;;
37971;SDS011;23794;48.234;8.344;2023-01-16T09:41:54;1.63;;;0.70;;
37971;SDS011;23794;48.234;8.344;2023-01-16T09:44:57;2.08;;;1.23;;
37971;SDS011;23794;48.234;8.344;2023-01-16T09:47:32;2.20;;;0.90;;
37971;SDS011;23794;48.234;8.344;2023-01-16T09:50:02;3.13;;;1.75;;
37971;SDS011;23794;48.234;8.344;2023-01-16T09:52:33;1.98;;;1.13;;
37971;SDS011;23794;48.234;8.344;2023-01-16T09:55:26;3.15;;;1.50;;
37971;SDS011;23794;48.234;8.344;2023-01-16T09:58:23;3.35;;;1.52;;
37971;SDS011;23794;48.234;8.344;2023-01-16T10:01:03;2.45;;;1.05;;
37971;SDS011;23794;48.234;8.344;2023-01-16T10:03:32;1.77;;;0.82;;
37971;SDS011;23794;48.234;8.344;2023-01-16T10:06:14;3.33;;;1.42;;
37971;SDS011;23794;48.234;8.344;2023-01-16T10:11:39;3.75;;;1.50;;
37971;SDS011;23794;48.234;8.344;2023-01-16T10:17:16;4.15;;;1.20;;
37971;SDS011;23794;48.234;8.344;2023-01-16T10:25:44;5.85;;;3.53;;
37971;SDS011;23794;48.234;8.344;2023-01-16T10:31:05;5.50;;;2.10;;
37971;SDS011;23794;48.234;8.344;2023-01-16T10:33:40;49.45;;;21.02;;
37971;SDS011;23794;48.234;8.344;2023-01-16T10:36:18;82.55;;;32.95;;
37971;SDS011;23794;48.234;8.344;2023-01-16T10:38:51;24.20;;;10.35;;
37971;SDS011;23794;48.234;8.344;2023-01-16T10:41:35;7.80;;;2.35;;
37971;SDS011;23794;48.234;8.344;2023-01-16T10:44:33;2.78;;;1.67;;
37971;SDS011;23794;48.234;8.344;2023-01-16T10:47:23;1.60;;;0.80;;
37971;SDS011;23794;48.234;8.344;2023-01-16T10:50:12;7.80;;;3.35;;
37971;SDS011;23794;48.234;8.344;2023-01-16T10:52:41;5.03;;;2.40;;
37971;SDS011;23794;48.234;8.344;2023-01-16T10:55:08;2.33;;;1.20;;
37971;SDS011;23794;48.234;8.344;2023-01-16T10:57:53;2.47;;;1.27;;
37971;SDS011;23794;48.234;8.344;2023-01-16T11:00:32;1.42;;;0.85;;
37971;SDS011;23794;48.234;8.344;2023-01-16T11:03:07;4.65;;;3.70;;
37971;SDS011;23794;48.234;8.344;2023-01-16T11:05:40;1.02;;;0.60;;
37971;SDS011;23794;48.234;8.344;2023-01-16T11:08:10;0.45;;;0.30;;
37971;SDS011;23794;48.234;8.344;2023-01-16T11:10:46;0.90;;;0.50;;
37971;SDS011;23794;48.234;8.344;2023-01-16T11:13:15;0.88;;;0.47;;
37971;SDS011;23794;48.234;8.344;2023-01-16T11:19:40;0.60;;;0.30;;
37971;SDS011;23794;48.234;8.344;2023-01-16T11:21:49;1.20;;;0.30;;
37971;SDS011;23794;48.234;8.344;2023-01-16T11:24:23;0.38;;;0.38;;
37971;SDS011;23794;48.234;8.344;2023-01-16T11:26:55;0.63;;;0.35;;
37971;SDS011;23794;48.234;8.344;2023-01-16T11:29:25;0.30;;;0.28;;
37971;SDS011;23794;48.234;8.344;2023-01-16T11:31:57;0.65;;;0.35;;
37971;SDS011;23794;48.234;8.344;2023-01-16T11:34:26;1.25;;;0.60;;
37971;SDS011;23794;48.234;8.344;2023-01-16T11:36:58;1.00;;;0.60;;
37971;SDS011;23794;48.234;8.344;2023-01-16T11:39:28;0.77;;;0.47;;
37971;SDS011;23794;48.234;8.344;2023-01-16T11:41:58;0.60;;;0.30;;
37971;SDS011;23794;48.234;8.344;2023-01-16T11:44:29;0.38;;;0.22;;
37971;SDS011;23794;48.234;8.344;2023-01-16T11:47:20;0.57;;;0.30;;
37971;SDS011;23794;48.234;8.344;2023-01-16T11:49:49;0.60;;;0.30;;
37971;SDS011;23794;48.234;8.344;2023-01-16T11:52:18;0.68;;;0.30;;
37971;SDS011;23794;48.234;8.344;2023-01-16T11:54:56;1.20;;;0.50;;
37971;SDS011;23794;48.234;8.344;2023-01-16T12:03:02;1.50;;;0.80;;
37971;SDS011;23794;48.234;8.344;2023-01-16T12:05:57;1.58;;;0.80;;
37971;SDS011;23794;48.234;8.344;2023-01-16T12:14:35;1.98;;;0.80;;
37971;SDS011;23794;48.234;8.344;2023-01-16T12:17:29;3.58;;;0.98;;
37971;SDS011;23794;48.234;8.344;2023-01-16T12:25:58;0.40;;;0.30;;
37971;SDS011;23794;48.234;8.344;2023-01-16T12:34:12;1.02;;;0.43;;
37971;SDS011;23794;48.234;8.344;2023-01-16T12:37:04;0.35;;;0.28;;
37971;SDS011;23794;48.234;8.344;2023-01-16T12:46:00;0.20;;;0.20;;
37971;SDS011;23794;48.234;8.344;2023-01-16T12:48:42;0.10;;;0.10;;
37971;SDS011;23794;48.234;8.344;2023-01-16T12:51:33;0.50;;;0.20;;
37971;SDS011;23794;48.234;8.344;2023-01-16T12:56:56;0.25;;;0.10;;
37971;SDS011;23794;48.234;8.344;2023-01-16T12:59:29;1.48;;;0.40;;
37971;SDS011;23794;48.234;8.344;2023-01-16T13:02:24;0.45;;;0.20;;
37971;SDS011;23794;48.234;8.344;2023-01-16T13:05:05;0.15;;;0.10;;
37971;SDS011;23794;48.234;8.344;2023-01-16T13:07:41;0.52;;;0.20;;
37971;SDS011;23794;48.234;8.344;2023-01-16T13:10:21;0.73;;;0.30;;
37971;SDS011;23794;48.234;8.344;2023-01-16T13:13:16;1.27;;;0.30;;
37971;SDS011;23794;48.234;8.344;2023-01-16T13:18:31;0.25;;;0.20;;
37971;SDS011;23794;48.234;8.344;2023-01-16T13:21:05;0.60;;;0.20;;
37971;SDS011;23794;48.234;8.344;2023-01-16T13:26:13;0.75;;;0.30;;
37971;SDS011;23794;48.234;8.344;2023-01-16T13:28:50;1.35;;;0.20;;
37971;SDS011;23794;48.234;8.344;2023-01-16T13:31:38;0.30;;;0.20;;
37971;SDS011;23794;48.234;8.344;2023-01-16T13:37:03;0.55;;;0.40;;
37971;SDS011;23794;48.234;8.344;2023-01-16T13:39:52;0.10;;;0.10;;
37971;SDS011;23794;48.234;8.344;2023-01-16T13:42:25;1.55;;;0.35;;
37971;SDS011;23794;48.234;8.344;2023-01-16T13:44:55;0.40;;;0.10;;
37971;SDS011;23794;48.234;8.344;2023-01-16T13:47:44;0.95;;;0.30;;
37971;SDS011;23794;48.234;8.344;2023-01-16T13:50:16;0.22;;;0.10;;
37971;SDS011;23794;48.234;8.344;2023-01-16T13:52:44;0.43;;;0.20;;
37971;SDS011;23794;48.234;8.344;2023-01-16T13:55:44;0.45;;;0.25;;
37971;SDS011;23794;48.234;8.344;2023-01-16T13:58:13;1.95;;;0.90;;
37971;SDS011;23794;48.234;8.344;2023-01-16T14:01:02;0.57;;;0.30;;
37971;SDS011;23794;48.234;8.344;2023-01-16T14:03:31;0.20;;;0.10;;
37971;SDS011;23794;48.234;8.344;2023-01-16T14:08:47;0.35;;;0.13;;
37971;SDS011;23794;48.234;8.344;2023-01-16T14:14:45;0.03;;;0.03;;
37971;SDS011;23794;48.234;8.344;2023-01-16T14:17:29;0.30;;;0.13;;
37971;SDS011;23794;48.234;8.344;2023-01-16T14:23:17;0.50;;;0.20;;
37971;SDS011;23794;48.234;8.344;2023-01-16T14:26:06;1.45;;;0.20;;
37971;SDS011;23794;48.234;8.344;2023-01-16T14:28:37;0.38;;;0.22;;
37971;SDS011;23794;48.234;8.344;2023-01-16T14:31:05;0.93;;;0.40;;
37971;SDS011;23794;48.234;8.344;2023-01-16T14:33:47;0.40;;;0.40;;
37971;SDS011;23794;48.234;8.344;2023-01-16T14:36:13;0.10;;;0.10;;
37971;SDS011;23794;48.234;8.344;2023-01-16T14:38:43;0.52;;;0.35;;
37971;SDS011;23794;48.234;8.344;2023-01-16T14:44:02;1.65;;;0.80;;
37971;SDS011;23794;48.234;8.344;2023-01-16T14:47:08;0.60;;;0.30;;
37971;SDS011;23794;48.234;8.344;2023-01-16T14:50:04;1.85;;;0.40;;
37971;SDS011;23794;48.234;8.344;2023-01-16T14:58:32;0.40;;;0.30;;
37971;SDS011;23794;48.234;8.344;2023-01-16T15:01:00;2.33;;;1.15;;
37971;SDS011;23794;48.234;8.344;2023-01-16T15:03:47;10.13;;;6.65;;
37971;SDS011;23794;48.234;8.344;2023-01-16T15:06:14;2.25;;;1.52;;
37971;SDS011;23794;48.234;8.344;2023-01-16T15:08:41;2.65;;;1.23;;
37971;SDS011;23794;48.234;8.344;2023-01-16T15:11:25;1.67;;;0.73;;
37971;SDS011;23794;48.234;8.344;2023-01-16T15:14:11;0.90;;;0.60;;
37971;SDS011;23794;48.234;8.344;2023-01-16T15:17:38;0.55;;;0.25;;
37971;SDS011;23794;48.234;8.344;2023-01-16T15:20:05;0.65;;;0.20;;
37971;SDS011;23794;48.234;8.344;2023-01-16T15:22:58;0.43;;;0.25;;
37971;SDS011;23794;48.234;8.344;2023-01-16T15:25:39;0.30;;;0.17;;
37971;SDS011;23794;48.234;8.344;2023-01-16T15:28:38;0.20;;;0.10;;
37971;SDS011;23794;48.234;8.344;2023-01-16T15:36:40;0.13;;;0.13;;
37971;SDS011;23794;48.234;8.344;2023-01-16T15:42:04;0.30;;;0.10;;
37971;SDS011;23794;48.234;8.344;2023-01-16T15:44:57;0.10;;;0.10;;
37971;SDS011;23794;48.234;8.344;2023-01-16T15:48:00;0.20;;;0.20;;
37971;SDS011;23794;48.234;8.344;2023-01-16T15:53:22;1.65;;;0.10;;
37971;SDS011;23794;48.234;8.344;2023-01-16T15:55:52;0.00;;;0.00;;
37971;SDS011;23794;48.234;8.344;2023-01-16T15:58:23;0.38;;;0.20;;
37971;SDS011;23794;48.234;8.344;2023-01-16T16:01:08;0.20;;;0.10;;
37971;SDS011;23794;48.234;8.344;2023-01-16T16:03:37;0.10;;;0.10;;
37971;SDS011;23794;48.234;8.344;2023-01-16T16:06:10;0.88;;;0.40;;
37971;SDS011;23794;48.234;8.344;2023-01-16T16:08:39;1.13;;;0.17;;
37971;SDS011;23794;48.234;8.344;2023-01-16T16:11:11;0.13;;;0.10;;
37971;SDS011;23794;48.234;8.344;2023-01-16T16:14:03;0.88;;;0.35;;
37971;SDS011;23794;48.234;8.344;2023-01-16T16:17:05;1.02;;;0.80;;
37971;SDS011;23794;48.234;8.344;2023-01-16T16:23:00;1.10;;;0.40;;
37971;SDS011;23794;48.234;8.344;2023-01-16T16:25:49;2.20;;;0.50;;
37971;SDS011;23794;48.234;8.344;2023-01-16T16:28:19;1.80;;;0.60;;
37971;SDS011;23794;48.234;8.344;2023-01-16T16:30:46;2.55;;;0.65;;
37971;SDS011;23794;48.234;8.344;2023-01-16T16:33:21;0.88;;;0.43;;
37971;SDS011;23794;48.234;8.344;2023-01-16T16:35:49;0.93;;;0.30;;
37971;SDS011;23794;48.234;8.344;2023-01-16T16:38:25;0.75;;;0.40;;
37971;SDS011;23794;48.234;8.344;2023-01-16T16:48:57;0.75;;;0.47;;
37971;SDS011;23794;48.234;8.344;2023-01-16T16:51:27;1.73;;;0.73;;
37971;SDS011;23794;48.234;8.344;2023-01-16T16:53:59;0.57;;;0.30;;
37971;SDS011;23794;48.234;8.344;2023-01-16T16:56:30;1.58;;;0.35;;
37971;SDS011;23794;48.234;8.344;2023-01-16T16:59:00;1.35;;;0.52;;
37971;SDS011;23794;48.234;8.344;2023-01-16T17:01:35;0.50;;;0.10;;
37971;SDS011;23794;48.234;8.344;2023-01-16T17:04:04;0.75;;;0.50;;
37971;SDS011;23794;48.234;8.344;2023-01-16T17:06:33;0.13;;;0.10;;
37971;SDS011;23794;48.234;8.344;2023-01-16T17:09:02;0.60;;;0.30;;
37971;SDS011;23794;48.234;8.344;2023-01-16T17:11:30;1.80;;;0.82;;
37971;SDS011;23794;48.234;8.344;2023-01-16T17:13:56;0.65;;;0.30;;
37971;SDS011;23794;48.234;8.344;2023-01-16T17:16:24;0.85;;;0.40;;
37971;SDS011;23794;48.234;8.344;2023-01-16T17:19:03;0.60;;;0.50;;
37971;SDS011;23794;48.234;8.344;2023-01-16T17:21:31;0.90;;;0.43;;
37971;SDS011;23794;48.234;8.344;2023-01-16T17:23:58;2.67;;;0.60;;
37971;SDS011;23794;48.234;8.344;2023-01-16T17:26:24;2.55;;;0.95;;
37971;SDS011;23794;48.234;8.344;2023-01-16T17:28:51;1.58;;;0.32;;
37971;SDS011;23794;48.234;8.344;2023-01-16T17:31:19;0.90;;;0.40;;
37971;SDS011;23794;48.234;8.344;2023-01-16T17:33:46;0.75;;;0.40;;